Time,TemperatureF,DewpointF,PressureIn,WindDirection,WindDirectionDegrees,WindSpeedMPH,WindSpeedGustMPH,Humidity,HourlyPrecipIn,Conditions,Clouds,dailyrainin,SolarRadiationWatts/m^2,SoftwareType,DateUTC
2013-11-15 00:09:00,41.5,26.0,30.06,SSW,201,11.0,-999.0,55,-99.99,,,0.00,0,weatherlink.com 1.10,2013-11-15 05:09:00,
2013-11-15 00:24:00,41.1,26.0,30.06,SSW,195,10.0,-999.0,56,-99.99,,,0.00,0,weatherlink.com 1.10,2013-11-15 05:24:00,
2013-11-15 00:39:00,41.1,26.0,30.06,SSW,195,8.0,-999.0,56,-99.99,,,0.00,0,weatherlink.com 1.10,2013-11-15 05:39:00,
2013-11-15 00:54:00,40.1,26.0,30.06,South,189,9.0,-999.0,58,-99.99,,,0.00,0,weatherlink.com 1.10,2013-11-15 05:54:00,
2013-11-15 01:09:00,39.2,27.0,30.06,South,187,10.0,-999.0,61,-99.99,,,0.00,0,weatherlink.com 1.10,2013-11-15 06:09:00,
2013-11-15 01:24:00,39.2,27.0,30.05,South,191,8.0,-999.0,62,-99.99,,,0.00,0,weatherlink.com 1.10,2013-11-15 06:24:00,
2013-11-15 01:39:00,39.5,26.0,30.05,SSW,200,7.0,-999.0,60,-99.99,,,0.00,0,weatherlink.com 1.10,2013-11-15 06:39:00,
2013-11-15 01:54:00,39.1,27.0,30.05,SSW,197,7.0,-999.0,62,-99.99,,,0.00,0,weatherlink.com 1.10,2013-11-15 06:54:00,
2013-11-15 02:09:00,39.3,27.0,30.05,South,191,9.0,-999.0,62,-99.99,,,0.00,0,weatherlink.com 1.10,2013-11-15 07:09:00,
2013-11-15 02:24:00,39.7,27.0,30.05,South,185,10.0,-999.0,61,-99.99,,,0.00,0,weatherlink.com 1.10,2013-11-15 07:24:00,
2013-11-15 02:39:00,40.5,27.0,30.06,SSW,193,9.0,-999.0,59,-99.99,,,0.00,0,weatherlink.com 1.10,2013-11-15 07:39:00,
2013-11-15 02:54:00,41.1,27.0,30.06,SSW,203,14.0,-999.0,57,-99.99,,,0.00,0,weatherlink.com 1.10,2013-11-15 07:54:00,
2013-11-15 03:09:00,41.1,27.0,30.05,SSW,210,9.0,-999.0,58,-99.99,,,0.00,0,weatherlink.com 1.10,2013-11-15 08:09:00,
2013-11-15 03:24:00,41.0,27.0,30.05,SSW,198,11.0,-999.0,58,-99.99,,,0.00,0,weatherlink.com 1.10,2013-11-15 08:24:00,
2013-11-15 03:39:00,41.3,27.0,30.04,SSW,193,7.0,-999.0,57,-99.99,,,0.00,0,weatherlink.com 1.10,2013-11-15 08:39:00,
2013-11-15 03:54:00,41.1,27.0,30.04,SSW,192,9.0,-999.0,58,-99.99,,,0.00,0,weatherlink.com 1.10,2013-11-15 08:54:00,
2013-11-15 04:09:00,41.6,28.0,30.05,SSW,192,10.0,-999.0,58,-99.99,,,0.00,0,weatherlink.com 1.10,2013-11-15 09:09:00,
2013-11-15 04:24:00,42.2,27.0,30.04,SSW,206,9.0,-999.0,55,-99.99,,,0.00,0,weatherlink.com 1.10,2013-11-15 09:24:00,
2013-11-15 04:39:00,42.5,27.0,30.04,SSW,195,7.0,-999.0,54,-99.99,,,0.00,0,weatherlink.com 1.10,2013-11-15 09:39:00,
2013-11-15 04:54:00,42.7,26.0,30.04,SSW,212,7.0,-999.0,53,-99.99,,,0.00,0,weatherlink.com 1.10,2013-11-15 09:54:00,
2013-11-15 05:09:00,43.0,27.0,30.04,SSW,197,13.0,-999.0,53,-99.99,,,0.00,0,weatherlink.com 1.10,2013-11-15 10:09:00,
2013-11-15 05:24:00,43.3,27.0,30.04,SSW,204,10.0,-999.0,52,-99.99,,,0.00,0,weatherlink.com 1.10,2013-11-15 10:24:00,
2013-11-15 05:39:00,43.1,27.0,30.04,SSW,197,9.0,-999.0,53,-99.99,,,0.00,0,weatherlink.com 1.10,2013-11-15 10:39:00,
2013-11-15 05:54:00,42.8,27.0,30.04,SSW,193,7.0,-999.0,55,-99.99,,,0.00,0,weatherlink.com 1.10,2013-11-15 10:54:00,
2013-11-15 06:09:00,42.7,27.0,30.04,SSW,199,7.0,-999.0,54,-99.99,,,0.00,0,weatherlink.com 1.10,2013-11-15 11:09:00,
2013-11-15 06:24:00,42.3,27.0,30.04,South,190,11.0,-999.0,56,-99.99,,,0.00,0,weatherlink.com 1.10,2013-11-15 11:24:00,
2013-11-15 06:39:00,42.3,27.0,30.04,SSW,203,8.0,-999.0,56,-99.99,,,0.00,0,weatherlink.com 1.10,2013-11-15 11:39:00,
2013-11-15 06:54:00,41.9,27.0,30.04,South,189,11.0,-999.0,57,-99.99,,,0.00,0,weatherlink.com 1.10,2013-11-15 11:54:00,
2013-11-15 07:09:00,40.9,28.0,30.04,South,185,9.0,-999.0,60,-99.99,,,0.00,0,weatherlink.com 1.10,2013-11-15 12:09:00,
2013-11-15 07:24:00,40.8,28.0,30.05,SSW,192,8.0,-999.0,60,-99.99,,,0.00,0,weatherlink.com 1.10,2013-11-15 12:24:00,
2013-11-15 07:39:00,41.0,28.0,30.05,South,191,9.0,-999.0,60,-99.99,,,0.00,0,weatherlink.com 1.10,2013-11-15 12:39:00,
2013-11-15 07:54:00,40.9,28.0,30.05,SSW,193,9.0,-999.0,61,-99.99,,,0.00,11,weatherlink.com 1.10,2013-11-15 12:54:00,
2013-11-15 08:09:00,40.9,29.0,30.05,South,191,7.0,-999.0,62,-99.99,,,0.00,28,weatherlink.com 1.10,2013-11-15 13:09:00,
2013-11-15 08:24:00,41.8,28.0,30.06,SSW,195,11.0,-999.0,59,-99.99,,,0.00,35,weatherlink.com 1.10,2013-11-15 13:24:00,
2013-11-15 08:39:00,41.9,28.0,30.06,SSW,197,10.0,-999.0,58,-99.99,,,0.00,53,weatherlink.com 1.10,2013-11-15 13:39:00,
2013-11-15 08:54:00,42.3,29.0,30.06,SSW,194,10.0,-999.0,59,-99.99,,,0.00,62,weatherlink.com 1.10,2013-11-15 13:54:00,
2013-11-15 09:09:00,42.9,28.0,30.06,SSW,193,13.0,-999.0,56,-99.99,,,0.00,76,weatherlink.com 1.10,2013-11-15 14:09:00,
2013-11-15 09:24:00,43.4,29.0,30.06,SSW,205,10.0,-999.0,57,-99.99,,,0.00,93,weatherlink.com 1.10,2013-11-15 14:24:00,
2013-11-15 09:39:00,43.8,29.0,30.06,SW,218,13.0,-999.0,56,-99.99,,,0.00,120,weatherlink.com 1.10,2013-11-15 14:39:00,
2013-11-15 09:54:00,44.3,28.0,30.05,SSW,199,9.0,-999.0,54,-99.99,,,0.00,162,weatherlink.com 1.10,2013-11-15 14:54:00,
2013-11-15 10:09:00,44.8,29.0,30.06,SSW,202,9.0,-999.0,54,-99.99,,,0.00,151,weatherlink.com 1.10,2013-11-15 15:09:00,
2013-11-15 10:24:00,45.3,29.0,30.05,SSW,208,9.0,-999.0,53,-99.99,,,0.00,218,weatherlink.com 1.10,2013-11-15 15:24:00,
2013-11-15 10:39:00,45.6,30.0,30.06,SSW,192,14.0,-999.0,54,-99.99,,,0.00,188,weatherlink.com 1.10,2013-11-15 15:39:00,
2013-11-15 10:54:00,45.7,29.0,30.07,SSW,208,14.0,-999.0,52,-99.99,,,0.00,193,weatherlink.com 1.10,2013-11-15 15:54:00,
2013-11-15 11:09:00,45.6,30.0,30.07,SW,214,15.0,-999.0,54,-99.99,,,0.00,144,weatherlink.com 1.10,2013-11-15 16:09:00,
2013-11-15 11:24:00,46.4,29.0,30.06,SSW,207,9.0,-999.0,52,-99.99,,,0.00,206,weatherlink.com 1.10,2013-11-15 16:24:00,
2013-11-15 11:39:00,46.2,30.0,30.06,SSW,197,14.0,-999.0,53,-99.99,,,0.00,204,weatherlink.com 1.10,2013-11-15 16:39:00,
2013-11-15 11:54:00,46.8,30.0,30.05,SSW,199,12.0,-999.0,52,-99.99,,,0.00,276,weatherlink.com 1.10,2013-11-15 16:54:00,
2013-11-15 12:09:00,47.0,30.0,30.05,WSW,243,10.0,-999.0,53,-99.99,,,0.00,169,weatherlink.com 1.10,2013-11-15 17:09:00,
2013-11-15 12:24:00,46.8,29.0,30.05,SSW,202,11.0,-999.0,51,-99.99,,,0.00,214,weatherlink.com 1.10,2013-11-15 17:24:00,
2013-11-15 12:39:00,47.6,30.0,30.04,SSW,211,13.0,-999.0,51,-99.99,,,0.00,206,weatherlink.com 1.10,2013-11-15 17:39:00,
2013-11-15 12:54:00,48.6,31.0,30.03,SSW,199,7.0,-999.0,50,-99.99,,,0.00,520,weatherlink.com 1.10,2013-11-15 17:54:00,
2013-11-15 13:09:00,49.4,31.0,30.02,SSW,204,12.0,-999.0,49,-99.99,,,0.00,503,weatherlink.com 1.10,2013-11-15 18:09:00,
2013-11-15 13:24:00,50.3,31.0,30.02,SSW,195,9.0,-999.0,48,-99.99,,,0.00,473,weatherlink.com 1.10,2013-11-15 18:24:00,
2013-11-15 13:39:00,50.8,31.0,30.01,South,185,13.0,-999.0,47,-99.99,,,0.00,468,weatherlink.com 1.10,2013-11-15 18:39:00,
2013-11-15 13:54:00,51.0,31.0,30.00,South,184,13.0,-999.0,47,-99.99,,,0.00,174,weatherlink.com 1.10,2013-11-15 18:54:00,
2013-11-15 14:09:00,50.8,32.0,30.01,SSW,200,16.0,-999.0,48,-99.99,,,0.00,336,weatherlink.com 1.10,2013-11-15 19:09:00,
2013-11-15 14:24:00,50.4,32.0,30.01,South,191,17.0,-999.0,49,-99.99,,,0.00,179,weatherlink.com 1.10,2013-11-15 19:24:00,
2013-11-15 14:39:00,51.0,31.0,30.01,South,184,17.0,-999.0,47,-99.99,,,0.00,169,weatherlink.com 1.10,2013-11-15 19:39:00,
2013-11-15 14:54:00,51.1,32.0,30.00,South,179,16.0,-999.0,48,-99.99,,,0.00,169,weatherlink.com 1.10,2013-11-15 19:54:00,
2013-11-15 15:09:00,50.9,32.0,30.00,SSW,192,15.0,-999.0,48,-99.99,,,0.00,153,weatherlink.com 1.10,2013-11-15 20:09:00,
2013-11-15 15:24:00,51.1,31.0,30.00,South,185,14.0,-999.0,47,-99.99,,,0.00,116,weatherlink.com 1.10,2013-11-15 20:24:00,
2013-11-15 15:39:00,51.1,31.0,30.00,South,187,11.0,-999.0,47,-99.99,,,0.00,116,weatherlink.com 1.10,2013-11-15 20:39:00,
2013-11-15 15:54:00,51.9,32.0,30.00,South,188,13.0,-999.0,47,-99.99,,,0.00,111,weatherlink.com 1.10,2013-11-15 20:54:00,
2013-11-15 16:09:00,51.7,32.0,30.00,SSW,197,16.0,-999.0,48,-99.99,,,0.00,79,weatherlink.com 1.10,2013-11-15 21:09:00,
2013-11-15 16:24:00,51.0,33.0,30.01,South,189,13.0,-999.0,51,-99.99,,,0.00,47,weatherlink.com 1.10,2013-11-15 21:24:00,
2013-11-15 16:39:00,50.5,33.0,30.02,SSW,199,8.0,-999.0,51,-99.99,,,0.00,21,weatherlink.com 1.10,2013-11-15 21:39:00,
2013-11-15 16:54:00,50.4,32.0,30.01,SSW,199,8.0,-999.0,50,-99.99,,,0.00,9,weatherlink.com 1.10,2013-11-15 21:54:00,
2013-11-15 17:09:00,49.5,32.0,30.01,South,191,6.0,-999.0,52,-99.99,,,0.00,7,weatherlink.com 1.10,2013-11-15 22:09:00,
2013-11-15 17:24:00,48.4,32.0,30.01,South,183,6.0,-999.0,53,-99.99,,,0.00,0,weatherlink.com 1.10,2013-11-15 22:24:00,
2013-11-15 17:40:00,47.2,32.0,30.00,South,170,7.0,-999.0,56,-99.99,,,0.00,0,weatherlink.com 1.10,2013-11-15 22:40:00,
2013-11-15 17:55:00,47.5,32.0,30.01,South,172,7.0,-999.0,55,-99.99,,,0.00,0,weatherlink.com 1.10,2013-11-15 22:55:00,
2013-11-15 18:10:00,47.4,32.0,30.01,SSE,164,6.0,-999.0,56,-99.99,,,0.00,0,weatherlink.com 1.10,2013-11-15 23:10:00,
2013-11-15 18:25:00,46.9,32.0,30.02,South,178,8.0,-999.0,57,-99.99,,,0.00,0,weatherlink.com 1.10,2013-11-15 23:25:00,
2013-11-15 18:40:00,46.1,33.0,30.02,South,186,8.0,-999.0,60,-99.99,,,0.00,0,weatherlink.com 1.10,2013-11-15 23:40:00,
2013-11-15 18:55:00,45.9,33.0,30.02,SSW,195,7.0,-999.0,62,-99.99,,,0.00,0,weatherlink.com 1.10,2013-11-15 23:55:00,
2013-11-15 19:10:00,45.7,34.0,30.02,South,183,6.0,-999.0,63,-99.99,,,0.00,0,weatherlink.com 1.10,2013-11-16 00:10:00,
2013-11-15 19:25:00,45.6,34.0,30.02,South,182,6.0,-999.0,63,-99.99,,,0.00,0,weatherlink.com 1.10,2013-11-16 00:25:00,
2013-11-15 19:40:00,46.8,33.0,30.02,South,170,5.0,-999.0,60,-99.99,,,0.00,0,weatherlink.com 1.10,2013-11-16 00:40:00,
2013-11-15 19:55:00,46.5,33.0,30.03,South,182,5.0,-999.0,60,-99.99,,,0.00,0,weatherlink.com 1.10,2013-11-16 00:55:00,
2013-11-15 20:10:00,46.1,33.0,30.03,South,181,5.0,-999.0,61,-99.99,,,0.00,0,weatherlink.com 1.10,2013-11-16 01:10:00,
2013-11-15 20:25:00,45.9,33.0,30.03,SSE,158,4.0,-999.0,61,-99.99,,,0.00,0,weatherlink.com 1.10,2013-11-16 01:25:00,
2013-11-15 20:40:00,45.8,32.0,30.03,SSE,165,4.0,-999.0,60,-99.99,,,0.00,0,weatherlink.com 1.10,2013-11-16 01:40:00,
2013-11-15 20:55:00,45.1,33.0,30.04,SSE,162,4.0,-999.0,63,-99.99,,,0.00,0,weatherlink.com 1.10,2013-11-16 01:55:00,
2013-11-15 21:10:00,44.5,33.0,30.04,SSE,166,4.0,-999.0,64,-99.99,,,0.00,0,weatherlink.com 1.10,2013-11-16 02:10:00,
2013-11-15 21:25:00,43.6,32.0,30.04,South,170,4.0,-999.0,65,-99.99,,,0.00,0,weatherlink.com 1.10,2013-11-16 02:25:00,
2013-11-15 21:40:00,42.5,33.0,30.04,South,179,6.0,-999.0,68,-99.99,,,0.00,0,weatherlink.com 1.10,2013-11-16 02:40:00,
2013-11-15 21:54:00,41.5,33.0,30.05,South,186,7.0,-999.0,71,-99.99,,,0.00,0,weatherlink.com 1.10,2013-11-16 02:54:00,
2013-11-15 22:09:00,41.1,33.0,30.04,South,187,6.0,-999.0,73,-99.99,,,0.00,0,weatherlink.com 1.10,2013-11-16 03:09:00,
2013-11-15 22:24:00,40.8,33.0,30.05,South,187,5.0,-999.0,73,-99.99,,,0.00,0,weatherlink.com 1.10,2013-11-16 03:24:00,
2013-11-15 22:39:00,41.2,33.0,30.05,South,179,6.0,-999.0,73,-99.99,,,0.00,0,weatherlink.com 1.10,2013-11-16 03:39:00,
2013-11-15 22:54:00,41.3,34.0,30.05,South,180,6.0,-999.0,74,-99.99,,,0.00,0,weatherlink.com 1.10,2013-11-16 03:54:00,
2013-11-15 23:09:00,41.8,34.0,30.04,South,177,7.0,-999.0,74,-99.99,,,0.00,0,weatherlink.com 1.10,2013-11-16 04:09:00,
2013-11-15 23:24:00,42.5,34.0,30.03,SSE,166,5.0,-999.0,73,-99.99,,,0.00,0,weatherlink.com 1.10,2013-11-16 04:24:00,
2013-11-15 23:39:00,41.4,34.0,30.03,SSE,162,6.0,-999.0,76,-99.99,,,0.00,0,weatherlink.com 1.10,2013-11-16 04:39:00,
2013-11-15 23:54:00,41.7,35.0,30.03,SSE,162,8.0,-999.0,77,-99.99,,,0.00,0,weatherlink.com 1.10,2013-11-16 04:54:00,